Apache Creek, New Mexico
Current Conditions -  °F | °C
As of 1:35 PM on Tuesday 25 Nov 2014 (Local Time) from KJTC Reporting Station
Clear Clear  
Wind Chill: 43°   Ceiling: Unl
Heat Index: 48°   Visibility: 10mi
Dew Point: -9°   Wind: 14mph
Humidity: 9%   Direction: 330°NNW
Pressure: 30.4"   Gusts: 17mph
Location:  33.6665°N, 108.765°W
Report Text: KJTC 252035Z AUTO 33012G15KT 10SM CLR 09/M23 A3040 RMK AO2
Loading
Personal Weather Stations






























Interactive Weather Map New forecast layout! Learn more

10-Day Weather Forecast

Advertisements
Track Severe Weather on mobile